Terminal Aerodrome Forecast
Issued by NWS

Home | Current Version | Previous Version | Text Only | Print | Product List | Glossary On
Versions: 1 2 3 4 5 6 7 8 9 10 11 12 13 14 15 16 17 18 19 20 21 22 23 24
000
FTUS43 KILX 011729
TAFDEC
TAF
KDEC 011729Z 0118/0218 33005KT P6SM VCSH SCT025 BKN045
      TEMPO 0118/0120 BKN025
     FM012300 VRB03KT P6SM BKN060
     FM021000 VRB03KT 2SM BR SCT003 BKN008
      TEMPO 0210/0214 1SM BR BKN003
     FM021500 32004KT P6SM OVC008
     FM021700 31004KT P6SM BKN025=

USA.gov is the U.S. government's official web portal to all federal, state and local government web resources and services.